Time;durP1;ratioP1;P1;durP2;ratioP2;P2;SDS_P1;SDS_P2;PMS_P1;PMS_P2;Temp;Humidity;BMP_temperature;BMP_pressure;BME280_temperature;BME280_humidity;BME280_pressure;Samples;Min_cycle;Max_cycle;Signal;HPM_P1;HPM_P2
2022/05/07 00:01:51;;;;;;;3.22;3.00;;;20.60;50.60;;;;;;5069458;28;44685;-61
2022/05/07 00:04:19;;;;;;;3.08;2.60;;;20.60;50.60;;;;;;5069542;28;43981;-61
2022/05/07 00:06:47;;;;;;;2.67;2.47;;;20.60;50.60;;;;;;5069473;28;43489;-61
2022/05/07 00:09:14;;;;;;;2.53;2.40;;;20.60;50.60;;;;;;5068310;28;43572;-61
2022/05/07 00:11:41;;;;;;;3.03;2.67;;;20.50;50.60;;;;;;5069509;28;44767;-62
2022/05/07 00:14:09;;;;;;;2.80;2.60;;;20.50;50.60;;;;;;5068961;28;43534;-60
2022/05/07 00:19:22;;;;;;;2.63;2.42;;;20.50;50.60;;;;;;5061788;28;43414;-61
2022/05/07 00:21:50;;;;;;;2.90;2.70;;;20.50;50.60;;;;;;5070244;28;44732;-61
2022/05/07 00:24:18;;;;;;;2.60;2.40;;;20.50;50.60;;;;;;5071507;28;43690;-61
2022/05/07 00:26:46;;;;;;;2.70;2.50;;;20.50;50.60;;;;;;5069246;28;43426;-61
2022/05/07 00:29:13;;;;;;;2.78;2.58;;;20.50;50.60;;;;;;5069899;28;43503;-61
2022/05/07 00:31:40;;;;;;;2.53;2.33;;;20.40;50.60;;;;;;5059139;28;44022;-61
2022/05/07 00:34:08;;;;;;;2.20;2.10;;;20.50;50.70;;;;;;5068108;28;43514;-61
2022/05/07 00:36:35;;;;;;;2.10;2.00;;;20.40;50.60;;;;;;5069734;28;43826;-61
2022/05/07 00:39:04;;;;;;;2.95;2.33;;;20.40;50.60;;;;;;5069554;28;43591;-61
2022/05/07 00:41:32;;;;;;;2.20;2.00;;;20.40;50.70;;;;;;5064625;28;44849;-61
2022/05/07 00:43:59;;;;;;;2.60;2.40;;;20.40;50.70;;;;;;5066632;28;43704;-61
2022/05/07 00:46:27;;;;;;;2.50;2.30;;;20.40;50.60;;;;;;5068168;28;43437;-61
2022/05/07 00:48:57;;;;;;;2.45;2.28;;;20.40;50.70;;;;;;5065376;28;43457;-61
2022/05/07 00:51:34;;;;;;;2.42;2.22;;;20.40;50.70;;;;;;5068975;28;43844;-61
2022/05/07 00:54:08;;;;;;;2.58;2.38;;;20.40;50.80;;;;;;5065160;28;43802;-61
2022/05/07 00:56:38;;;;;;;2.10;2.00;;;20.40;50.70;;;;;;5056387;28;43376;-61
2022/05/07 00:59:06;;;;;;;2.40;2.30;;;20.40;50.70;;;;;;5050058;28;43471;-61
2022/05/07 01:01:34;;;;;;;2.40;2.30;;;20.40;50.70;;;;;;5066550;28;44221;-61
2022/05/07 01:04:02;;;;;;;2.38;2.17;;;20.30;50.70;;;;;;5067199;28;43969;-61
2022/05/07 01:06:33;;;;;;;2.00;1.90;;;20.30;50.70;;;;;;5067449;28;43477;-61
2022/05/07 01:09:03;;;;;;;2.13;2.03;;;20.30;50.70;;;;;;5066745;28;43435;-61
2022/05/07 01:11:32;;;;;;;2.40;2.20;;;20.30;50.70;;;;;;5067707;28;44685;-62
2022/05/07 01:14:01;;;;;;;2.10;1.85;;;20.30;50.70;;;;;;5067177;28;43537;-60
2022/05/07 01:16:31;;;;;;;2.70;2.50;;;20.30;50.80;;;;;;5066070;28;43459;-61
2022/05/07 01:18:58;;;;;;;2.05;1.95;;;20.30;50.80;;;;;;5083819;27;43482;-61
2022/05/07 01:21:27;;;;;;;2.40;2.20;;;20.20;50.70;;;;;;5068058;28;45111;-61
2022/05/07 01:23:56;;;;;;;2.20;2.10;;;20.20;50.70;;;;;;5067806;28;43630;-61
2022/05/07 01:26:28;;;;;;;2.45;2.25;;;20.20;50.70;;;;;;5063252;28;43448;-61
2022/05/07 01:29:03;;;;;;;2.08;1.98;;;20.20;50.70;;;;;;5059481;28;43527;-62
2022/05/07 01:31:34;;;;;;;2.53;2.15;;;20.20;50.80;;;;;;5066585;28;44034;-61
2022/05/07 01:34:02;;;;;;;2.17;2.08;;;20.20;50.70;;;;;;5066966;28;44176;-61
2022/05/07 01:36:32;;;;;;;2.30;2.10;;;20.20;50.70;;;;;;5063215;28;43506;-60
2022/05/07 01:39:04;;;;;;;2.33;2.10;;;20.20;50.70;;;;;;5064995;28;43690;-61
2022/05/07 01:41:31;;;;;;;2.28;2.08;;;20.20;50.80;;;;;;5066647;28;43884;-61
2022/05/07 01:44:00;;;;;;;2.17;2.08;;;20.10;50.70;;;;;;5068878;28;43676;-61
2022/05/07 01:49:17;;;;;;;2.40;2.20;;;20.10;50.70;;;;;;5082047;27;43526;-61
2022/05/07 01:51:45;;;;;;;2.22;2.13;;;20.10;50.70;;;;;;5062556;28;44814;-61
2022/05/07 01:54:12;;;;;;;2.67;2.47;;;20.10;50.70;;;;;;5063231;28;43936;-61
2022/05/07 01:56:40;;;;;;;2.40;2.20;;;20.10;50.70;;;;;;5081407;27;43480;-61
2022/05/07 01:59:08;;;;;;;2.55;2.35;;;20.10;50.70;;;;;;5066594;28;43546;-61
2022/05/07 02:01:35;;;;;;;2.10;2.00;;;20.10;50.70;;;;;;5066595;28;44095;-62
2022/05/07 02:04:03;;;;;;;2.58;2.40;;;20.10;50.70;;;;;;5075256;27;43461;-61
2022/05/07 02:06:30;;;;;;;2.72;2.53;;;20.10;50.80;;;;;;5081434;27;43573;-62
2022/05/07 02:08:58;;;;;;;2.50;2.30;;;20.10;50.70;;;;;;5068478;28;43537;-61
2022/05/07 02:11:29;;;;;;;2.25;2.15;;;20.10;50.70;;;;;;5066532;28;44788;-60
2022/05/07 02:13:58;;;;;;;3.15;2.15;;;20.10;50.80;;;;;;5062514;28;43638;-60
2022/05/07 02:16:26;;;;;;;2.58;2.38;;;20.10;50.80;;;;;;5065619;28;43464;-61
2022/05/07 02:18:53;;;;;;;2.60;2.40;;;20.10;50.80;;;;;;5066619;28;43579;-60
2022/05/07 02:21:21;;;;;;;2.30;2.20;;;20.10;50.80;;;;;;5067167;28;45032;-61
2022/05/07 02:23:48;;;;;;;2.40;2.30;;;20.00;50.70;;;;;;5066830;28;43439;-62
2022/05/07 02:26:16;;;;;;;2.55;2.35;;;20.00;50.80;;;;;;5081932;27;43449;-62
2022/05/07 02:28:44;;;;;;;2.75;2.47;;;20.00;50.80;;;;;;5065184;28;43530;-61
2022/05/07 02:31:12;;;;;;;2.80;2.50;;;20.00;50.80;;;;;;5062584;28;44078;-61
2022/05/07 02:33:40;;;;;;;2.70;2.50;;;20.00;50.80;;;;;;5056359;28;43459;-61
2022/05/07 02:36:12;;;;;;;2.90;2.70;;;20.00;50.80;;;;;;5065775;28;43649;-61
2022/05/07 02:38:40;;;;;;;2.60;2.40;;;20.00;50.80;;;;;;5067289;28;43550;-62
2022/05/07 02:43:58;;;;;;;2.88;2.67;;;20.00;50.80;;;;;;5074337;27;44100;-61
2022/05/07 02:46:26;;;;;;;2.70;2.50;;;20.00;50.80;;;;;;5064512;28;44095;-61
2022/05/07 02:48:54;;;;;;;2.85;2.60;;;19.90;50.80;;;;;;5064057;28;43417;-60
2022/05/07 02:51:21;;;;;;;2.88;2.67;;;19.90;50.80;;;;;;5061726;28;43759;-61
2022/05/07 02:53:49;;;;;;;2.88;2.67;;;19.90;50.80;;;;;;5067179;28;43833;-61
2022/05/07 02:56:16;;;;;;;3.03;2.80;;;19.90;50.80;;;;;;5065780;28;43430;-60
2022/05/07 02:58:45;;;;;;;3.00;2.80;;;19.90;50.80;;;;;;5065456;28;43469;-61
2022/05/07 03:01:13;;;;;;;3.00;2.80;;;19.90;50.80;;;;;;5065113;28;43933;-61
2022/05/07 03:03:40;;;;;;;3.65;3.10;;;19.90;50.80;;;;;;5067865;28;43444;-61
2022/05/07 03:06:08;;;;;;;3.30;3.00;;;19.90;50.90;;;;;;5065282;28;43387;-60
2022/05/07 03:08:36;;;;;;;3.45;3.15;;;19.90;50.90;;;;;;5065164;28;43562;-61
2022/05/07 03:11:03;;;;;;;3.10;2.90;;;19.90;50.90;;;;;;5065187;28;45301;-61
2022/05/07 03:13:31;;;;;;;3.20;3.00;;;19.90;50.90;;;;;;5063962;28;43506;-61
2022/05/07 03:15:59;;;;;;;3.30;3.00;;;19.80;50.80;;;;;;5065549;28;43419;-61
2022/05/07 03:18:27;;;;;;;3.50;3.10;;;19.80;50.80;;;;;;5067273;28;43552;-61
2022/05/07 03:20:56;;;;;;;3.05;2.85;;;19.90;50.90;;;;;;5065741;28;44051;-61
2022/05/07 03:23:23;;;;;;;3.00;2.80;;;19.80;50.80;;;;;;5080243;27;43465;-60
2022/05/07 03:26:01;;;;;;;3.72;3.42;;;19.80;50.80;;;;;;5064997;28;43501;-61
2022/05/07 03:28:28;;;;;;;3.53;3.03;;;19.80;50.90;;;;;;5066568;28;43470;-61
2022/05/07 03:30:56;;;;;;;3.22;3.03;;;19.80;50.90;;;;;;5061885;28;44936;-60
2022/05/07 03:33:25;;;;;;;3.58;3.28;;;19.80;50.90;;;;;;5064513;28;43799;-62
2022/05/07 03:35:52;;;;;;;3.30;3.10;;;19.80;50.90;;;;;;5065375;28;43484;-61
2022/05/07 03:38:20;;;;;;;3.75;3.45;;;19.80;50.90;;;;;;5064849;28;43592;-61
2022/05/07 03:40:58;;;;;;;3.80;3.50;;;19.80;50.90;;;;;;5066544;28;44379;-62
2022/05/07 03:43:33;;;;;;;4.22;3.30;;;19.80;50.90;;;;;;5069242;28;44032;-61
2022/05/07 03:46:02;;;;;;;3.75;3.45;;;19.80;50.90;;;;;;5068121;28;43513;-61
2022/05/07 03:48:30;;;;;;;3.45;3.15;;;19.80;50.90;;;;;;5067325;28;43497;-61
2022/05/07 03:50:59;;;;;;;3.60;3.30;;;19.80;51.00;;;;;;5071304;28;43996;-61
2022/05/07 03:53:30;;;;;;;3.65;3.35;;;19.80;51.00;;;;;;5079039;27;43470;-61
2022/05/07 03:56:21;;;;;;;3.53;3.22;;;19.80;51.00;;;;;;5068181;28;43538;-62
2022/05/07 03:58:49;;;;;;;3.70;3.40;;;19.80;51.00;;;;;;5064683;28;43652;-61
2022/05/07 04:01:29;;;;;;;3.38;3.13;;;19.70;50.90;;;;;;5058447;28;43995;-61
2022/05/07 04:03:56;;;;;;;3.60;3.30;;;19.70;50.90;;;;;;5064160;28;44304;-61
2022/05/07 04:06:24;;;;;;;3.67;3.38;;;19.70;50.90;;;;;;5066198;28;43470;-61
2022/05/07 04:08:51;;;;;;;3.80;3.50;;;19.70;50.90;;;;;;5070173;27;43696;-63
2022/05/07 04:11:19;;;;;;;3.85;3.55;;;19.70;50.90;;;;;;5085211;27;46172;-62
2022/05/07 04:13:48;;;;;;;4.13;3.72;;;19.70;50.90;;;;;;5068993;28;44378;-61
2022/05/07 04:16:16;;;;;;;5.38;3.40;;;19.70;50.90;;;;;;5069911;28;43402;-61
2022/05/07 04:19:04;;;;;;;3.58;3.28;;;19.70;51.00;;;;;;5067588;28;43443;-61
2022/05/07 04:21:34;;;;;;;4.20;3.80;;;19.70;50.90;;;;;;5064558;28;43994;-62
2022/05/07 04:24:11;;;;;;;3.70;3.40;;;19.70;50.90;;;;;;5067659;28;44280;-61
2022/05/07 04:26:39;;;;;;;4.20;3.80;;;19.70;50.90;;;;;;5064068;28;43522;-62
2022/05/07 04:29:07;;;;;;;3.80;3.50;;;19.70;50.90;;;;;;5067585;28;43546;-62
2022/05/07 04:31:35;;;;;;;3.90;3.60;;;19.70;51.00;;;;;;5064106;28;44352;-62
2022/05/07 04:34:07;;;;;;;4.03;3.63;;;19.70;51.00;;;;;;5067814;28;43538;-61
2022/05/07 04:36:35;;;;;;;3.60;3.30;;;19.70;51.00;;;;;;5067974;28;43521;-61
2022/05/07 04:39:08;;;;;;;4.25;3.50;;;19.70;51.00;;;;;;5067219;28;43491;-61
2022/05/07 04:41:51;;;;;;;3.53;3.33;;;19.70;51.00;;;;;;5066559;28;44048;-61
2022/05/07 04:44:23;;;;;;;3.78;3.47;;;19.60;51.00;;;;;;5050615;28;43789;-61
2022/05/07 04:46:51;;;;;;;3.75;3.45;;;19.60;51.00;;;;;;5067263;28;43487;-62
2022/05/07 04:49:19;;;;;;;4.00;3.70;;;19.70;51.00;;;;;;5062653;28;43508;-61
2022/05/07 04:51:50;;;;;;;4.00;3.60;;;19.60;51.00;;;;;;5061641;28;44418;-61
2022/05/07 04:54:21;;;;;;;3.85;3.47;;;19.70;51.00;;;;;;5066869;28;43975;-61
2022/05/07 04:56:51;;;;;;;3.78;3.47;;;19.60;51.00;;;;;;5066908;28;43418;-60
2022/05/07 04:59:21;;;;;;;4.05;3.75;;;19.60;51.00;;;;;;5064065;28;43430;-61
2022/05/07 05:02:02;;;;;;;;;;;19.60;51.10;;;;;;5064370;28;44089;-61
2022/05/07 05:04:30;;;;;;;3.63;3.33;;;19.60;51.00;;;;;;5081968;27;43506;-61
2022/05/07 05:06:58;;;;;;;4.38;3.97;;;19.60;51.10;;;;;;5068361;28;43490;-61
2022/05/07 05:09:30;;;;;;;4.30;3.90;;;19.60;51.10;;;;;;5068686;28;43512;-61
2022/05/07 05:12:07;;;;;;;4.10;3.75;;;19.60;51.10;;;;;;5062342;28;44007;-62
2022/05/07 05:17:37;;;;;;;4.00;3.70;;;19.60;51.10;;;;;;5058952;28;43398;-62
2022/05/07 05:20:06;;;;;;;4.07;3.78;;;19.60;51.10;;;;;;5081366;27;43654;-61
2022/05/07 05:22:37;;;;;;;3.72;3.42;;;19.60;51.10;;;;;;5067887;28;44096;-62
2022/05/07 05:25:07;;;;;;;4.15;3.78;;;19.50;51.10;;;;;;5078410;27;43463;-62
2022/05/07 05:27:38;;;;;;;3.97;3.67;;;19.50;51.10;;;;;;5067578;28;43525;-61
2022/05/07 05:30:06;;;;;;;3.90;3.60;;;19.60;51.20;;;;;;5065240;28;43479;-61
2022/05/07 05:32:34;;;;;;;4.10;3.80;;;19.60;51.10;;;;;;5066827;28;43623;-61
2022/05/07 05:35:04;;;;;;;4.15;3.75;;;19.60;51.10;;;;;;5069245;28;43977;-62
2022/05/07 05:37:37;;;;;;;4.13;3.83;;;19.60;51.10;;;;;;5069356;28;43966;-61
2022/05/07 05:40:06;;;;;;;3.90;3.60;;;19.60;51.20;;;;;;5072245;28;43491;-62
2022/05/07 05:42:38;;;;;;;4.03;3.72;;;19.50;51.10;;;;;;5063314;28;44697;-61
2022/05/07 05:45:08;;;;;;;3.97;3.67;;;19.50;51.10;;;;;;5067384;28;43497;-62
2022/05/07 05:47:39;;;;;;;3.80;3.50;;;19.60;51.20;;;;;;5071622;27;43518;-61
2022/05/07 05:50:07;;;;;;;4.20;3.78;;;19.50;51.20;;;;;;5061774;28;43578;-62
2022/05/07 05:52:40;;;;;;;4.00;3.70;;;19.50;51.20;;;;;;5066552;28;45298;-62
2022/05/07 05:55:08;;;;;;;4.43;4.03;;;19.50;51.10;;;;;;5068211;28;43926;-61
2022/05/07 05:57:37;;;;;;;3.80;3.50;;;19.50;51.20;;;;;;5082578;27;43376;-62
2022/05/07 06:00:09;;;;;;;3.53;3.22;;;19.50;51.40;;;;;;5066653;28;43543;-62
2022/05/07 06:02:43;;;;;;;4.43;4.13;;;19.50;51.10;;;;;;5070227;28;44148;-61
2022/05/07 06:05:17;;;;;;;3.90;3.60;;;19.60;51.20;;;;;;5072460;27;43554;-62
2022/05/07 06:07:50;;;;;;;3.92;3.63;;;19.50;51.10;;;;;;5064143;28;43452;-62
2022/05/07 06:10:17;;;;;;;3.67;3.38;;;19.50;51.10;;;;;;5064153;28;43617;-61
2022/05/07 06:12:46;;;;;;;3.60;3.30;;;19.50;51.20;;;;;;5068440;28;43809;-61
2022/05/07 06:15:15;;;;;;;3.55;3.25;;;19.50;51.10;;;;;;5065652;28;44600;-61
2022/05/07 06:17:42;;;;;;;3.67;3.30;;;19.50;51.10;;;;;;5077373;27;43483;-61
2022/05/07 06:20:12;;;;;;;3.50;3.20;;;19.50;51.10;;;;;;5072807;28;43433;-60
2022/05/07 06:22:46;;;;;;;3.45;3.15;;;19.50;51.10;;;;;;5066552;28;45121;-61
2022/05/07 06:28:08;;;;;;;3.53;3.22;;;19.50;51.10;;;;;;5066295;28;43578;-61
2022/05/07 06:30:38;;;;;;;3.63;3.33;;;19.50;51.10;;;;;;5066704;28;43487;-61
2022/05/07 06:33:10;;;;;;;3.60;3.30;;;19.50;51.10;;;;;;5065878;28;43792;-62
2022/05/07 06:35:48;;;;;;;3.20;3.00;;;19.50;51.10;;;;;;5064261;28;43434;-61
2022/05/07 06:38:28;;;;;;;3.88;3.53;;;19.50;51.10;;;;;;5065525;28;43474;-61
2022/05/07 06:40:56;;;;;;;3.90;3.30;;;19.50;51.30;;;;;;5054945;28;43644;-61
2022/05/07 06:43:24;;;;;;;3.70;3.40;;;19.50;51.30;;;;;;5060018;28;44973;-61
2022/05/07 06:46:04;;;;;;;3.00;2.80;;;19.50;51.40;;;;;;5066068;28;43554;-61
2022/05/07 06:48:38;;;;;;;4.32;3.05;;;19.50;51.40;;;;;;5063957;28;43447;-62
2022/05/07 06:51:11;;;;;;;3.50;3.20;;;19.50;51.40;;;;;;5073424;27;43522;-62
2022/05/07 06:53:39;;;;;;;3.35;3.15;;;19.50;51.40;;;;;;5062943;28;44966;-61
2022/05/07 06:56:06;;;;;;;3.40;3.10;;;19.50;51.50;;;;;;5067801;27;43520;-63
2022/05/07 06:58:35;;;;;;;3.25;2.95;;;19.50;51.50;;;;;;5065535;28;43501;-63
2022/05/07 07:01:03;;;;;;;3.13;2.92;;;19.50;51.50;;;;;;5076056;28;43478;-63
2022/05/07 07:03:31;;;;;;;4.05;3.13;;;19.50;51.50;;;;;;5067052;28;44967;-61
2022/05/07 07:06:00;;;;;;;2.90;2.70;;;19.50;51.60;;;;;;5068032;27;43701;-62
2022/05/07 07:08:30;;;;;;;3.30;3.00;;;19.50;51.50;;;;;;5065951;28;43531;-63
2022/05/07 07:10:58;;;;;;;3.42;3.20;;;19.50;51.60;;;;;;5067042;28;43472;-62
2022/05/07 07:13:25;;;;;;;3.25;3.05;;;19.50;51.60;;;;;;5065631;28;43796;-62
2022/05/07 07:15:53;;;;;;;3.40;3.13;;;19.50;51.60;;;;;;5068807;28;43436;-61
2022/05/07 07:18:21;;;;;;;3.53;3.22;;;19.60;51.60;;;;;;5070001;28;43458;-62
2022/05/07 07:20:49;;;;;;;3.80;3.40;;;19.50;52.30;;;;;;5069551;28;43470;-63
2022/05/07 07:23:17;;;;;;;3.60;3.33;;;19.50;51.60;;;;;;5071036;28;44677;-62
2022/05/07 07:25:45;;;;;;;3.55;3.25;;;19.50;51.60;;;;;;5070533;28;43928;-61
2022/05/07 07:28:12;;;;;;;3.40;3.10;;;19.50;51.60;;;;;;5069044;28;43491;-62
2022/05/07 07:30:40;;;;;;;3.28;3.08;;;19.50;51.60;;;;;;5068276;28;43502;-62
2022/05/07 07:33:08;;;;;;;3.80;3.42;;;19.50;51.60;;;;;;5072586;28;44761;-61
2022/05/07 07:35:36;;;;;;;4.20;3.85;;;19.50;51.40;;;;;;5069869;28;43502;-61
2022/05/07 07:38:04;;;;;;;3.72;3.42;;;19.60;51.60;;;;;;5069193;28;43476;-62
2022/05/07 07:40:31;;;;;;;4.07;3.67;;;19.60;51.70;;;;;;5067402;28;43609;-61
2022/05/07 07:42:59;;;;;;;4.93;4.50;;;19.60;51.70;;;;;;5070593;28;43802;-61
2022/05/07 07:48:12;;;;;;;4.75;4.20;;;19.50;52.20;;;;;;5069481;28;43530;-62
2022/05/07 07:50:40;;;;;;;5.25;4.75;;;19.60;52.20;;;;;;5067586;28;43516;-62
2022/05/07 07:53:09;;;;;;;5.43;4.93;;;19.60;52.20;;;;;;5071159;27;44657;-61
2022/05/07 07:55:38;;;;;;;7.35;5.20;;;19.70;52.20;;;;;;5069158;28;43468;-61
2022/05/07 07:58:08;;;;;;;6.63;5.28;;;19.70;52.20;;;;;;5068419;28;43434;-61
2022/05/07 08:00:38;;;;;;;5.80;5.20;;;19.80;52.10;;;;;;5072203;28;43454;-61
2022/05/07 08:03:17;;;;;;;6.77;5.10;;;19.90;51.90;;;;;;5070049;28;44258;-62
2022/05/07 08:05:50;;;;;;;6.60;5.13;;;20.00;51.90;;;;;;5061714;28;43431;-62
2022/05/07 08:13:54;;;;;;;6.05;5.45;;;20.20;52.10;;;;;;5063173;28;44091;-62
2022/05/07 08:16:22;;;;;;;5.90;5.25;;;20.30;51.90;;;;;;5069392;28;43685;-63
2022/05/07 08:18:51;;;;;;;7.40;5.40;;;20.40;52.30;;;;;;5069536;28;43430;-62
2022/05/07 08:21:19;;;;;;;6.30;5.32;;;20.40;52.40;;;;;;5074161;28;43618;-62
2022/05/07 08:23:47;;;;;;;6.25;5.47;;;20.60;52.70;;;;;;5064559;28;43792;-62
2022/05/07 08:26:14;;;;;;;11.15;5.07;;;20.70;52.70;;;;;;5067630;27;44016;-63
2022/05/07 08:28:42;;;;;;;7.93;5.22;;;20.80;52.60;;;;;;5068646;28;43481;-62
2022/05/07 08:31:10;;;;;;;8.55;5.35;;;21.00;52.30;;;;;;5069249;28;43468;-62
2022/05/07 08:33:43;;;;;;;7.47;4.65;;;21.10;52.10;;;;;;5069189;28;44689;-61
2022/05/07 08:36:11;;;;;;;6.07;4.95;;;21.30;51.90;;;;;;5069608;28;43466;-62
2022/05/07 08:38:40;;;;;;;6.78;4.78;;;21.50;51.70;;;;;;5069001;28;43469;-61
2022/05/07 08:41:11;;;;;;;8.98;5.10;;;21.70;51.50;;;;;;5070234;28;43532;-61
2022/05/07 08:43:42;;;;;;;5.70;4.45;;;22.00;51.00;;;;;;5068724;28;44080;-63
2022/05/07 08:46:12;;;;;;;5.28;4.78;;;22.20;50.90;;;;;;5067880;28;43430;-62
2022/05/07 08:48:43;;;;;;;5.35;4.50;;;22.40;50.40;;;;;;5066160;28;43483;-62
2022/05/07 08:51:20;;;;;;;4.82;4.13;;;22.60;50.00;;;;;;5068542;28;43432;-62
2022/05/07 08:53:53;;;;;;;5.80;4.28;;;22.80;49.50;;;;;;5068049;28;44030;-62
2022/05/07 08:56:23;;;;;;;5.18;4.65;;;22.90;49.30;;;;;;5064486;27;44080;-62
2022/05/07 08:58:53;;;;;;;6.28;4.63;;;23.10;49.00;;;;;;5061433;28;43529;-62
2022/05/07 09:01:21;;;;;;;6.70;4.80;;;23.30;48.70;;;;;;5069317;28;43545;-62
2022/05/07 09:03:50;;;;;;;5.57;4.18;;;23.40;48.70;;;;;;5068996;27;43789;-62
2022/05/07 09:06:23;;;;;;;6.57;4.40;;;23.50;48.50;;;;;;5083228;27;43465;-62
2022/05/07 09:08:52;;;;;;;5.18;4.53;;;23.60;48.30;;;;;;5068768;28;43534;-62
2022/05/07 09:11:24;;;;;;;5.60;4.82;;;23.60;48.20;;;;;;5068048;28;43554;-62
2022/05/07 09:14:06;;;;;;;4.53;4.13;;;23.60;48.20;;;;;;5068238;28;43802;-62
2022/05/07 09:16:40;;;;;;;5.75;4.78;;;23.60;48.10;;;;;;5067227;28;43468;-62
2022/05/07 09:19:27;;;;;;;4.22;3.80;;;23.60;48.10;;;;;;5069700;28;43986;-61
2022/05/07 09:22:09;;;;;;;4.38;3.97;;;23.50;48.20;;;;;;5065898;28;43426;-62
2022/05/07 09:24:38;;;;;;;5.40;4.13;;;23.50;48.40;;;;;;5070711;28;44990;-62
2022/05/07 09:27:07;;;;;;;4.78;4.20;;;23.40;48.50;;;;;;5069256;27;43549;-62
2022/05/07 09:29:35;;;;;;;5.38;4.38;;;23.30;48.70;;;;;;5085110;27;43432;-62
2022/05/07 09:32:16;;;;;;;5.25;4.55;;;23.20;48.80;;;;;;5066472;28;43509;-62
2022/05/07 09:37:38;;;;;;;6.85;5.18;;;23.10;49.00;;;;;;5066554;28;43435;-62
2022/05/07 09:40:11;;;;;;;5.68;4.47;;;23.00;49.20;;;;;;5067516;28;43861;-61
2022/05/07 09:42:39;;;;;;;5.10;4.28;;;23.00;49.30;;;;;;5068567;28;43497;-62
2022/05/07 09:45:07;;;;;;;5.05;4.50;;;22.90;49.40;;;;;;5070394;27;44793;-62
2022/05/07 09:47:37;;;;;;;5.30;4.35;;;22.90;49.50;;;;;;5066542;28;43886;-62
2022/05/07 09:50:20;;;;;;;4.93;4.43;;;22.90;49.60;;;;;;5064376;28;43534;-61
2022/05/07 09:58:31;;;;;;;5.53;4.65;;;22.70;49.80;;;;;;5022948;28;43936;-62
2022/05/07 10:01:17;;;;;;;4.60;4.20;;;22.70;49.90;;;;;;5069016;27;43474;-62
2022/05/07 10:04:16;;;;;;;5.30;4.80;;;22.70;50.00;;;;;;5068059;28;43453;-62
2022/05/07 10:06:56;;;;;;;5.55;4.95;;;22.60;50.10;;;;;;5077527;27;44694;-62
2022/05/07 10:09:42;;;;;;;5.47;4.97;;;22.60;50.20;;;;;;5065304;28;43611;-62
2022/05/07 10:12:20;;;;;;;5.47;4.35;;;22.60;50.30;;;;;;5080794;27;43435;-61
2022/05/07 10:14:48;;;;;;;3.97;3.65;;;22.50;50.20;;;;;;5065854;28;43545;-62
2022/05/07 10:17:21;;;;;;;4.82;3.90;;;22.60;50.10;;;;;;5064347;28;43803;-62
2022/05/07 10:19:52;;;;;;;4.53;3.40;;;22.60;50.10;;;;;;5065743;28;43561;-61
2022/05/07 10:22:23;;;;;;;4.25;3.40;;;22.60;50.10;;;;;;5064528;28;43411;-61
2022/05/07 10:25:06;;;;;;;3.67;3.38;;;22.60;50.10;;;;;;5077643;27;43556;-61
2022/05/07 10:27:36;;;;;;;3.25;2.92;;;22.60;50.20;;;;;;5064033;28;44709;-62
2022/05/07 10:30:22;;;;;;;3.40;3.10;;;22.60;50.30;;;;;;5067745;28;43563;-62
2022/05/07 10:33:03;;;;;;;3.70;3.30;;;22.60;50.10;;;;;;5060791;28;43379;-63
2022/05/07 10:36:06;;;;;;;3.20;2.78;;;22.60;50.10;;;;;;5064642;28;43529;-62
2022/05/07 10:38:37;;;;;;;4.25;3.13;;;22.60;50.30;;;;;;5065332;28;44678;-62
2022/05/07 10:41:19;;;;;;;3.20;2.90;;;22.60;50.40;;;;;;5065297;28;43708;-62
2022/05/07 10:43:55;;;;;;;3.67;3.03;;;22.60;50.30;;;;;;5075449;28;43439;-63
2022/05/07 10:46:25;;;;;;;3.55;3.00;;;22.50;50.40;;;;;;5067514;28;44045;-62
2022/05/07 10:48:58;;;;;;;3.33;3.03;;;22.50;50.40;;;;;;5063438;28;43822;-62
2022/05/07 10:51:27;;;;;;;3.22;2.90;;;22.50;50.60;;;;;;5064025;28;43497;-62
2022/05/07 10:53:57;;;;;;;3.17;2.92;;;22.50;50.60;;;;;;5065731;27;43482;-62
2022/05/07 10:56:27;;;;;;;3.55;2.95;;;22.50;50.70;;;;;;5067339;28;43550;-62
2022/05/07 10:58:57;;;;;;;3.92;3.30;;;22.50;50.60;;;;;;5066379;28;43933;-63
2022/05/07 11:01:26;;;;;;;3.60;2.80;;;22.50;50.70;;;;;;5068175;28;43657;-62
2022/05/07 11:04:05;;;;;;;3.20;2.90;;;22.50;50.60;;;;;;5065287;27;43519;-63
2022/05/07 11:06:39;;;;;;;3.53;3.10;;;22.50;51.00;;;;;;5066619;28;43559;-62
2022/05/07 11:09:14;;;;;;;4.13;3.25;;;22.50;50.90;;;;;;5059623;28;44886;-63
2022/05/07 11:11:44;;;;;;;3.03;2.72;;;22.50;51.00;;;;;;5072799;28;43954;-63
2022/05/07 11:14:25;;;;;;;3.17;2.88;;;22.50;50.90;;;;;;5056147;28;43558;-63
2022/05/07 11:16:54;;;;;;;3.97;3.00;;;22.50;50.90;;;;;;5066402;28;43462;-63
2022/05/07 11:19:29;;;;;;;3.65;3.33;;;22.40;50.90;;;;;;5069251;28;44696;-62
2022/05/07 11:21:59;;;;;;;4.00;3.60;;;22.50;50.90;;;;;;5063486;28;43450;-62
2022/05/07 11:24:28;;;;;;;3.28;3.05;;;22.50;51.20;;;;;;5059166;28;43450;-62
2022/05/07 11:27:02;;;;;;;3.40;3.10;;;22.40;51.20;;;;;;5066752;28;43676;-62
2022/05/07 11:29:30;;;;;;;3.30;2.92;;;22.40;51.00;;;;;;5067361;27;43757;-62
2022/05/07 11:31:59;;;;;;;4.55;2.88;;;22.40;51.00;;;;;;5060596;28;43542;-61
2022/05/07 11:34:34;;;;;;;3.30;3.00;;;22.40;51.00;;;;;;5061774;28;43530;-62
2022/05/07 11:37:14;;;;;;;3.40;3.10;;;22.40;50.90;;;;;;5068957;28;43614;-62
2022/05/07 11:39:50;;;;;;;3.70;2.90;;;22.40;51.10;;;;;;5064869;28;44983;-61
2022/05/07 11:42:43;;;;;;;3.50;3.17;;;22.40;51.00;;;;;;5065272;28;43995;-62
2022/05/07 11:45:26;;;;;;;3.20;2.80;;;22.40;51.30;;;;;;5065490;28;43517;-62
2022/05/07 11:48:14;;;;;;;4.65;3.08;;;22.40;51.30;;;;;;5065204;28;43425;-62
2022/05/07 11:50:56;;;;;;;3.17;2.92;;;22.40;51.20;;;;;;5062067;28;44023;-62
2022/05/07 11:53:30;;;;;;;;;;;22.40;51.00;;;;;;5066604;28;44223;-62
2022/05/07 11:56:11;;;;;;;3.08;2.88;;;22.40;51.20;;;;;;5059688;28;43518;-61
2022/05/07 11:58:48;;;;;;;3.00;2.80;;;22.40;51.20;;;;;;5067192;28;43545;-61
2022/05/07 12:01:24;;;;;;;2.97;2.78;;;22.50;51.20;;;;;;5066232;27;43859;-61
2022/05/07 12:03:53;;;;;;;3.30;3.00;;;22.40;51.10;;;;;;5069780;28;43522;-62
2022/05/07 12:06:31;;;;;;;2.90;2.70;;;22.40;51.20;;;;;;5079165;28;43417;-61
2022/05/07 12:09:09;;;;;;;3.85;3.50;;;22.40;51.20;;;;;;5069345;28;44124;-62
2022/05/07 12:11:37;;;;;;;5.30;3.70;;;22.40;51.40;;;;;;5068090;28;43789;-61
2022/05/07 12:14:04;;;;;;;3.75;3.40;;;22.30;51.30;;;;;;5069064;28;44062;-62
2022/05/07 12:19:29;;;;;;;3.40;3.10;;;22.30;51.30;;;;;;5063141;28;43464;-61
2022/05/07 12:30:14;;;;;;;3.13;2.92;;;22.30;51.30;;;;;;5066209;28;43482;-61
2022/05/07 12:32:44;;;;;;;3.78;3.00;;;22.30;51.50;;;;;;5069058;28;44039;-61
2022/05/07 12:35:12;;;;;;;4.00;3.25;;;22.30;51.60;;;;;;5067650;28;43508;-61
2022/05/07 12:37:40;;;;;;;3.40;3.10;;;22.20;51.50;;;;;;5067799;28;43393;-61
2022/05/07 12:40:08;;;;;;;3.63;2.95;;;22.20;51.40;;;;;;5071546;28;43410;-62
2022/05/07 12:42:36;;;;;;;2.80;2.60;;;22.20;51.40;;;;;;5063905;28;43841;-61
2022/05/07 12:45:09;;;;;;;3.13;2.83;;;22.20;51.50;;;;;;5062650;28;44161;-61
2022/05/07 12:47:37;;;;;;;3.80;2.83;;;22.20;51.50;;;;;;5063694;28;43506;-61
2022/05/07 12:50:06;;;;;;;3.38;2.97;;;22.20;51.50;;;;;;5070241;27;43489;-61
2022/05/07 12:52:34;;;;;;;2.83;2.63;;;22.20;51.60;;;;;;5068087;28;44967;-61
2022/05/07 12:55:01;;;;;;;2.95;2.75;;;22.20;51.50;;;;;;5066055;28;43441;-62
2022/05/07 12:57:31;;;;;;;3.88;2.70;;;22.20;51.80;;;;;;5067932;28;43957;-61
2022/05/07 12:59:58;;;;;;;3.10;2.80;;;22.20;51.80;;;;;;5070194;27;43578;-61
2022/05/07 13:02:26;;;;;;;2.65;2.45;;;22.20;51.70;;;;;;5068698;28;43813;-61
2022/05/07 13:04:54;;;;;;;4.25;2.58;;;22.20;51.70;;;;;;5064554;28;43581;-61
2022/05/07 13:07:22;;;;;;;3.08;2.60;;;22.20;51.70;;;;;;5070624;28;43502;-62
2022/05/07 13:09:50;;;;;;;3.25;2.47;;;22.10;51.60;;;;;;5069273;27;43477;-61
2022/05/07 13:12:23;;;;;;;3.22;2.40;;;22.10;51.70;;;;;;5065668;28;44697;-61
2022/05/07 13:14:57;;;;;;;3.22;2.30;;;22.10;51.60;;;;;;5067702;28;43526;-63
2022/05/07 13:17:25;;;;;;;;;;;22.10;51.60;;;;;;5065683;28;43419;-62
2022/05/07 13:19:53;;;;;;;2.80;2.33;;;22.10;51.60;;;;;;5068202;27;43572;-61
2022/05/07 13:22:20;;;;;;;2.45;2.25;;;22.00;51.70;;;;;;5066002;28;44104;-61
2022/05/07 13:24:48;;;;;;;3.10;2.33;;;22.00;51.70;;;;;;5068634;28;43448;-61
2022/05/07 13:27:15;;;;;;;2.70;2.50;;;22.00;51.60;;;;;;5065762;28;43562;-61
2022/05/07 13:29:43;;;;;;;3.13;2.58;;;22.00;51.70;;;;;;5068592;28;43539;-62
2022/05/07 13:32:10;;;;;;;2.97;2.78;;;22.00;51.70;;;;;;5065392;28;43787;-61
2022/05/07 13:34:38;;;;;;;2.70;2.50;;;22.00;51.70;;;;;;5068792;28;44035;-61
2022/05/07 13:37:05;;;;;;;2.30;2.20;;;22.00;51.70;;;;;;5054306;27;43522;-61
2022/05/07 13:39:33;;;;;;;2.40;2.20;;;22.00;51.70;;;;;;5065603;28;44096;-61
2022/05/07 13:42:01;;;;;;;2.70;2.50;;;22.00;51.70;;;;;;5067843;28;44961;-61
2022/05/07 13:44:29;;;;;;;2.70;2.50;;;22.00;51.70;;;;;;5063539;28;43471;-62
2022/05/07 13:46:56;;;;;;;3.13;2.40;;;22.00;51.70;;;;;;5065630;28;43552;-62
2022/05/07 13:49:24;;;;;;;2.70;2.50;;;22.00;51.70;;;;;;5064305;28;43522;-62